sensor_id;sensor_type;location;lat;lon;timestamp;P1;durP1;ratioP1;P2;durP2;ratioP2
4460;SDS011;2243;48.812;9.232;2023-12-20T00:00:52;1.93;;;1.83;;
4460;SDS011;2243;48.812;9.232;2023-12-20T00:03:23;1.80;;;1.70;;
4460;SDS011;2243;48.812;9.232;2023-12-20T00:05:54;1.60;;;1.50;;
4460;SDS011;2243;48.812;9.232;2023-12-20T00:08:25;1.47;;;1.47;;
4460;SDS011;2243;48.812;9.232;2023-12-20T00:10:56;1.13;;;1.13;;
4460;SDS011;2243;48.812;9.232;2023-12-20T00:13:27;1.40;;;1.40;;
4460;SDS011;2243;48.812;9.232;2023-12-20T00:15:58;1.30;;;1.30;;
4460;SDS011;2243;48.812;9.232;2023-12-20T00:18:30;1.53;;;1.43;;
4460;SDS011;2243;48.812;9.232;2023-12-20T00:21:00;1.50;;;1.40;;
4460;SDS011;2243;48.812;9.232;2023-12-20T00:23:31;1.20;;;1.20;;
4460;SDS011;2243;48.812;9.232;2023-12-20T00:26:03;1.47;;;1.37;;
4460;SDS011;2243;48.812;9.232;2023-12-20T00:28:34;1.77;;;1.67;;
4460;SDS011;2243;48.812;9.232;2023-12-20T00:31:05;1.60;;;1.50;;
4460;SDS011;2243;48.812;9.232;2023-12-20T00:33:36;1.53;;;1.53;;
4460;SDS011;2243;48.812;9.232;2023-12-20T00:36:07;1.47;;;1.40;;
4460;SDS011;2243;48.812;9.232;2023-12-20T00:38:38;1.20;;;1.20;;
4460;SDS011;2243;48.812;9.232;2023-12-20T00:41:09;1.30;;;1.30;;
4460;SDS011;2243;48.812;9.232;2023-12-20T00:43:40;1.93;;;1.37;;
4460;SDS011;2243;48.812;9.232;2023-12-20T00:46:11;1.20;;;1.20;;
4460;SDS011;2243;48.812;9.232;2023-12-20T00:48:42;1.10;;;1.00;;
4460;SDS011;2243;48.812;9.232;2023-12-20T00:51:16;1.97;;;1.87;;
4460;SDS011;2243;48.812;9.232;2023-12-20T00:53:46;1.20;;;1.20;;
4460;SDS011;2243;48.812;9.232;2023-12-20T00:56:38;1.80;;;1.70;;
4460;SDS011;2243;48.812;9.232;2023-12-20T00:59:09;0.97;;;0.97;;
4460;SDS011;2243;48.812;9.232;2023-12-20T01:01:41;1.70;;;1.60;;
4460;SDS011;2243;48.812;9.232;2023-12-20T01:04:12;3.50;;;1.27;;
4460;SDS011;2243;48.812;9.232;2023-12-20T01:06:43;1.60;;;1.50;;
4460;SDS011;2243;48.812;9.232;2023-12-20T01:09:14;2.10;;;1.30;;
4460;SDS011;2243;48.812;9.232;2023-12-20T01:11:45;1.53;;;1.53;;
4460;SDS011;2243;48.812;9.232;2023-12-20T01:14:16;1.27;;;1.13;;
4460;SDS011;2243;48.812;9.232;2023-12-20T01:16:47;1.23;;;1.20;;
4460;SDS011;2243;48.812;9.232;2023-12-20T01:19:18;1.10;;;1.10;;
4460;SDS011;2243;48.812;9.232;2023-12-20T01:21:49;3.00;;;1.30;;
4460;SDS011;2243;48.812;9.232;2023-12-20T01:24:20;1.17;;;1.17;;
4460;SDS011;2243;48.812;9.232;2023-12-20T01:26:51;5.23;;;1.47;;
4460;SDS011;2243;48.812;9.232;2023-12-20T01:29:22;1.30;;;1.30;;
4460;SDS011;2243;48.812;9.232;2023-12-20T01:31:53;1.43;;;1.43;;
4460;SDS011;2243;48.812;9.232;2023-12-20T01:34:24;1.50;;;1.50;;
4460;SDS011;2243;48.812;9.232;2023-12-20T01:36:55;1.50;;;1.50;;
4460;SDS011;2243;48.812;9.232;2023-12-20T01:39:26;1.50;;;1.40;;
4460;SDS011;2243;48.812;9.232;2023-12-20T01:41:59;1.70;;;1.60;;
4460;SDS011;2243;48.812;9.232;2023-12-20T01:44:30;1.40;;;1.40;;
4460;SDS011;2243;48.812;9.232;2023-12-20T01:47:01;1.20;;;1.20;;
4460;SDS011;2243;48.812;9.232;2023-12-20T01:49:32;1.70;;;1.60;;
4460;SDS011;2243;48.812;9.232;2023-12-20T01:52:04;1.50;;;1.40;;
4460;SDS011;2243;48.812;9.232;2023-12-20T01:54:35;1.60;;;1.47;;
4460;SDS011;2243;48.812;9.232;2023-12-20T01:57:07;1.47;;;1.37;;
4460;SDS011;2243;48.812;9.232;2023-12-20T01:59:39;1.20;;;1.20;;
4460;SDS011;2243;48.812;9.232;2023-12-20T02:02:11;1.30;;;1.30;;
4460;SDS011;2243;48.812;9.232;2023-12-20T02:04:43;1.40;;;1.30;;
4460;SDS011;2243;48.812;9.232;2023-12-20T02:07:14;1.80;;;1.70;;
4460;SDS011;2243;48.812;9.232;2023-12-20T02:09:45;1.80;;;1.37;;
4460;SDS011;2243;48.812;9.232;2023-12-20T02:12:17;1.70;;;1.47;;
4460;SDS011;2243;48.812;9.232;2023-12-20T02:14:49;1.10;;;1.10;;
4460;SDS011;2243;48.812;9.232;2023-12-20T02:17:20;1.47;;;1.40;;
4460;SDS011;2243;48.812;9.232;2023-12-20T02:19:51;1.30;;;1.30;;
4460;SDS011;2243;48.812;9.232;2023-12-20T02:22:22;1.00;;;1.00;;
4460;SDS011;2243;48.812;9.232;2023-12-20T02:24:53;1.60;;;1.50;;
4460;SDS011;2243;48.812;9.232;2023-12-20T02:27:24;1.30;;;1.30;;
4460;SDS011;2243;48.812;9.232;2023-12-20T02:29:55;2.03;;;1.90;;
4460;SDS011;2243;48.812;9.232;2023-12-20T02:32:26;1.27;;;1.27;;
4460;SDS011;2243;48.812;9.232;2023-12-20T02:34:58;1.27;;;1.23;;
4460;SDS011;2243;48.812;9.232;2023-12-20T02:37:29;5.80;;;1.80;;
4460;SDS011;2243;48.812;9.232;2023-12-20T02:40:00;1.67;;;1.60;;
4460;SDS011;2243;48.812;9.232;2023-12-20T02:42:31;2.93;;;1.77;;
4460;SDS011;2243;48.812;9.232;2023-12-20T02:45:02;1.60;;;1.53;;
4460;SDS011;2243;48.812;9.232;2023-12-20T02:47:33;1.57;;;1.47;;
4460;SDS011;2243;48.812;9.232;2023-12-20T02:50:04;1.60;;;1.60;;
4460;SDS011;2243;48.812;9.232;2023-12-20T02:52:36;1.43;;;1.33;;
4460;SDS011;2243;48.812;9.232;2023-12-20T02:55:07;1.60;;;1.50;;
4460;SDS011;2243;48.812;9.232;2023-12-20T02:57:38;1.80;;;1.70;;
4460;SDS011;2243;48.812;9.232;2023-12-20T03:00:12;2.30;;;2.10;;
4460;SDS011;2243;48.812;9.232;2023-12-20T03:02:44;2.30;;;2.20;;
4460;SDS011;2243;48.812;9.232;2023-12-20T03:05:15;1.90;;;1.80;;
4460;SDS011;2243;48.812;9.232;2023-12-20T03:07:46;2.13;;;2.03;;
4460;SDS011;2243;48.812;9.232;2023-12-20T03:10:18;2.00;;;1.90;;
4460;SDS011;2243;48.812;9.232;2023-12-20T03:12:56;2.53;;;2.33;;
4460;SDS011;2243;48.812;9.232;2023-12-20T03:15:27;2.40;;;1.97;;
4460;SDS011;2243;48.812;9.232;2023-12-20T03:17:58;1.80;;;1.70;;
4460;SDS011;2243;48.812;9.232;2023-12-20T03:20:29;1.70;;;1.60;;
4460;SDS011;2243;48.812;9.232;2023-12-20T03:23:04;2.20;;;2.10;;
4460;SDS011;2243;48.812;9.232;2023-12-20T03:25:35;2.53;;;2.43;;
4460;SDS011;2243;48.812;9.232;2023-12-20T03:28:06;2.33;;;2.23;;
4460;SDS011;2243;48.812;9.232;2023-12-20T03:30:37;1.93;;;1.83;;
4460;SDS011;2243;48.812;9.232;2023-12-20T03:33:08;1.90;;;1.80;;
4460;SDS011;2243;48.812;9.232;2023-12-20T03:35:39;1.10;;;1.10;;
4460;SDS011;2243;48.812;9.232;2023-12-20T03:38:10;1.97;;;1.83;;
4460;SDS011;2243;48.812;9.232;2023-12-20T03:40:41;2.10;;;1.90;;
4460;SDS011;2243;48.812;9.232;2023-12-20T03:43:12;1.00;;;1.00;;
4460;SDS011;2243;48.812;9.232;2023-12-20T03:45:43;1.30;;;1.10;;
4460;SDS011;2243;48.812;9.232;2023-12-20T03:48:14;0.77;;;0.77;;
4460;SDS011;2243;48.812;9.232;2023-12-20T03:50:45;1.00;;;1.00;;
4460;SDS011;2243;48.812;9.232;2023-12-20T03:53:17;1.33;;;0.93;;
4460;SDS011;2243;48.812;9.232;2023-12-20T03:55:48;0.60;;;0.60;;
4460;SDS011;2243;48.812;9.232;2023-12-20T03:58:19;3.43;;;0.80;;
4460;SDS011;2243;48.812;9.232;2023-12-20T04:00:50;0.70;;;0.70;;
4460;SDS011;2243;48.812;9.232;2023-12-20T04:03:21;0.53;;;0.50;;
4460;SDS011;2243;48.812;9.232;2023-12-20T04:05:53;0.60;;;0.60;;
4460;SDS011;2243;48.812;9.232;2023-12-20T04:08:24;0.50;;;0.50;;
4460;SDS011;2243;48.812;9.232;2023-12-20T04:10:54;0.40;;;0.40;;
4460;SDS011;2243;48.812;9.232;2023-12-20T04:13:25;1.37;;;0.53;;
4460;SDS011;2243;48.812;9.232;2023-12-20T04:15:56;0.60;;;0.60;;
4460;SDS011;2243;48.812;9.232;2023-12-20T04:18:27;0.53;;;0.53;;
4460;SDS011;2243;48.812;9.232;2023-12-20T04:20:58;0.70;;;0.70;;
4460;SDS011;2243;48.812;9.232;2023-12-20T04:23:29;1.70;;;0.70;;
4460;SDS011;2243;48.812;9.232;2023-12-20T04:26:00;0.50;;;0.50;;
4460;SDS011;2243;48.812;9.232;2023-12-20T04:28:31;0.60;;;0.60;;
4460;SDS011;2243;48.812;9.232;2023-12-20T04:31:02;0.57;;;0.50;;
4460;SDS011;2243;48.812;9.232;2023-12-20T04:33:33;0.50;;;0.50;;
4460;SDS011;2243;48.812;9.232;2023-12-20T04:36:04;0.60;;;0.60;;
4460;SDS011;2243;48.812;9.232;2023-12-20T04:38:36;0.60;;;0.60;;
4460;SDS011;2243;48.812;9.232;2023-12-20T04:41:06;0.50;;;0.50;;
4460;SDS011;2243;48.812;9.232;2023-12-20T04:43:37;0.60;;;0.60;;
4460;SDS011;2243;48.812;9.232;2023-12-20T04:46:08;0.50;;;0.50;;
4460;SDS011;2243;48.812;9.232;2023-12-20T04:48:39;0.50;;;0.50;;
4460;SDS011;2243;48.812;9.232;2023-12-20T04:51:10;0.70;;;0.70;;
4460;SDS011;2243;48.812;9.232;2023-12-20T04:53:41;0.70;;;0.70;;
4460;SDS011;2243;48.812;9.232;2023-12-20T04:56:12;0.50;;;0.50;;
4460;SDS011;2243;48.812;9.232;2023-12-20T04:58:43;0.60;;;0.60;;
4460;SDS011;2243;48.812;9.232;2023-12-20T05:01:14;0.60;;;0.60;;
4460;SDS011;2243;48.812;9.232;2023-12-20T05:03:45;0.40;;;0.40;;
4460;SDS011;2243;48.812;9.232;2023-12-20T05:06:17;0.50;;;0.50;;
4460;SDS011;2243;48.812;9.232;2023-12-20T05:08:48;0.57;;;0.57;;
4460;SDS011;2243;48.812;9.232;2023-12-20T05:11:19;0.87;;;0.60;;
4460;SDS011;2243;48.812;9.232;2023-12-20T05:13:49;0.50;;;0.50;;
4460;SDS011;2243;48.812;9.232;2023-12-20T05:16:21;1.13;;;0.50;;
4460;SDS011;2243;48.812;9.232;2023-12-20T05:18:52;0.50;;;0.50;;
4460;SDS011;2243;48.812;9.232;2023-12-20T05:21:23;0.53;;;0.53;;
4460;SDS011;2243;48.812;9.232;2023-12-20T05:23:54;0.60;;;0.60;;
4460;SDS011;2243;48.812;9.232;2023-12-20T05:26:25;0.60;;;0.60;;
4460;SDS011;2243;48.812;9.232;2023-12-20T05:28:56;0.50;;;0.50;;
4460;SDS011;2243;48.812;9.232;2023-12-20T05:31:27;0.70;;;0.70;;
4460;SDS011;2243;48.812;9.232;2023-12-20T05:33:58;0.40;;;0.40;;
4460;SDS011;2243;48.812;9.232;2023-12-20T05:36:29;0.50;;;0.50;;
4460;SDS011;2243;48.812;9.232;2023-12-20T05:39:00;2.13;;;0.77;;
4460;SDS011;2243;48.812;9.232;2023-12-20T05:41:31;1.00;;;1.00;;
4460;SDS011;2243;48.812;9.232;2023-12-20T05:44:02;0.60;;;0.60;;
4460;SDS011;2243;48.812;9.232;2023-12-20T05:46:33;0.60;;;0.60;;
4460;SDS011;2243;48.812;9.232;2023-12-20T05:49:04;0.60;;;0.60;;
4460;SDS011;2243;48.812;9.232;2023-12-20T05:51:35;0.57;;;0.57;;
4460;SDS011;2243;48.812;9.232;2023-12-20T05:54:06;0.73;;;0.70;;
4460;SDS011;2243;48.812;9.232;2023-12-20T05:56:39;1.23;;;0.70;;
4460;SDS011;2243;48.812;9.232;2023-12-20T05:59:10;0.60;;;0.60;;
4460;SDS011;2243;48.812;9.232;2023-12-20T06:01:41;0.60;;;0.60;;
4460;SDS011;2243;48.812;9.232;2023-12-20T06:04:12;0.53;;;0.53;;
4460;SDS011;2243;48.812;9.232;2023-12-20T06:06:43;0.60;;;0.60;;
4460;SDS011;2243;48.812;9.232;2023-12-20T06:09:14;1.40;;;1.30;;
4460;SDS011;2243;48.812;9.232;2023-12-20T06:11:45;1.30;;;1.30;;
4460;SDS011;2243;48.812;9.232;2023-12-20T06:14:16;0.93;;;0.93;;
4460;SDS011;2243;48.812;9.232;2023-12-20T06:16:47;1.07;;;0.97;;
4460;SDS011;2243;48.812;9.232;2023-12-20T06:19:18;0.80;;;0.80;;
4460;SDS011;2243;48.812;9.232;2023-12-20T06:21:49;0.80;;;0.80;;
4460;SDS011;2243;48.812;9.232;2023-12-20T06:24:21;0.80;;;0.80;;
4460;SDS011;2243;48.812;9.232;2023-12-20T06:26:52;0.90;;;0.90;;
4460;SDS011;2243;48.812;9.232;2023-12-20T06:29:23;0.90;;;0.90;;
4460;SDS011;2243;48.812;9.232;2023-12-20T06:31:53;0.70;;;0.70;;
4460;SDS011;2243;48.812;9.232;2023-12-20T06:34:24;1.23;;;1.23;;
4460;SDS011;2243;48.812;9.232;2023-12-20T06:36:56;0.83;;;0.83;;
4460;SDS011;2243;48.812;9.232;2023-12-20T06:39:26;0.67;;;0.67;;
4460;SDS011;2243;48.812;9.232;2023-12-20T06:41:58;1.00;;;1.00;;
4460;SDS011;2243;48.812;9.232;2023-12-20T06:44:29;1.33;;;1.30;;
4460;SDS011;2243;48.812;9.232;2023-12-20T06:47:00;0.80;;;0.80;;
4460;SDS011;2243;48.812;9.232;2023-12-20T06:49:31;0.90;;;0.90;;
4460;SDS011;2243;48.812;9.232;2023-12-20T06:52:02;0.97;;;0.97;;
4460;SDS011;2243;48.812;9.232;2023-12-20T06:54:34;0.83;;;0.83;;
4460;SDS011;2243;48.812;9.232;2023-12-20T06:57:05;0.87;;;0.87;;
4460;SDS011;2243;48.812;9.232;2023-12-20T06:59:40;0.80;;;0.80;;
4460;SDS011;2243;48.812;9.232;2023-12-20T07:02:11;0.70;;;0.70;;
4460;SDS011;2243;48.812;9.232;2023-12-20T07:04:44;1.00;;;0.90;;
4460;SDS011;2243;48.812;9.232;2023-12-20T07:07:15;1.10;;;1.10;;
4460;SDS011;2243;48.812;9.232;2023-12-20T07:09:46;1.50;;;1.40;;
4460;SDS011;2243;48.812;9.232;2023-12-20T07:12:17;1.63;;;1.50;;
4460;SDS011;2243;48.812;9.232;2023-12-20T07:14:49;1.70;;;1.57;;
4460;SDS011;2243;48.812;9.232;2023-12-20T07:17:20;1.60;;;1.50;;
4460;SDS011;2243;48.812;9.232;2023-12-20T07:19:52;1.50;;;1.50;;
4460;SDS011;2243;48.812;9.232;2023-12-20T07:22:23;1.20;;;1.20;;
4460;SDS011;2243;48.812;9.232;2023-12-20T07:24:55;1.53;;;1.43;;
4460;SDS011;2243;48.812;9.232;2023-12-20T07:27:26;2.13;;;1.70;;
4460;SDS011;2243;48.812;9.232;2023-12-20T07:29:57;2.50;;;2.40;;
4460;SDS011;2243;48.812;9.232;2023-12-20T07:32:28;2.67;;;2.57;;
4460;SDS011;2243;48.812;9.232;2023-12-20T07:34:59;3.20;;;3.10;;
4460;SDS011;2243;48.812;9.232;2023-12-20T07:37:30;3.13;;;2.93;;
4460;SDS011;2243;48.812;9.232;2023-12-20T07:40:01;5.80;;;3.10;;
4460;SDS011;2243;48.812;9.232;2023-12-20T07:42:33;2.87;;;2.77;;
4460;SDS011;2243;48.812;9.232;2023-12-20T07:45:04;3.97;;;3.67;;
4460;SDS011;2243;48.812;9.232;2023-12-20T07:47:36;5.20;;;3.40;;
4460;SDS011;2243;48.812;9.232;2023-12-20T07:50:07;3.47;;;3.20;;
4460;SDS011;2243;48.812;9.232;2023-12-20T07:52:38;3.77;;;3.57;;
4460;SDS011;2243;48.812;9.232;2023-12-20T07:55:09;4.53;;;4.23;;
4460;SDS011;2243;48.812;9.232;2023-12-20T07:57:40;4.50;;;3.70;;
4460;SDS011;2243;48.812;9.232;2023-12-20T08:00:11;3.73;;;3.43;;
4460;SDS011;2243;48.812;9.232;2023-12-20T08:02:43;7.70;;;3.83;;
4460;SDS011;2243;48.812;9.232;2023-12-20T08:05:14;7.33;;;4.00;;
4460;SDS011;2243;48.812;9.232;2023-12-20T08:07:47;4.13;;;3.83;;
4460;SDS011;2243;48.812;9.232;2023-12-20T08:10:18;4.47;;;4.10;;
4460;SDS011;2243;48.812;9.232;2023-12-20T08:12:49;4.43;;;4.07;;
4460;SDS011;2243;48.812;9.232;2023-12-20T08:15:21;4.07;;;3.80;;
4460;SDS011;2243;48.812;9.232;2023-12-20T08:17:52;4.20;;;3.90;;
4460;SDS011;2243;48.812;9.232;2023-12-20T08:20:23;3.93;;;3.73;;
4460;SDS011;2243;48.812;9.232;2023-12-20T08:23:09;4.30;;;4.00;;
4460;SDS011;2243;48.812;9.232;2023-12-20T08:25:40;4.80;;;4.30;;
4460;SDS011;2243;48.812;9.232;2023-12-20T08:28:11;5.07;;;4.30;;
4460;SDS011;2243;48.812;9.232;2023-12-20T08:30:42;3.60;;;3.40;;
4460;SDS011;2243;48.812;9.232;2023-12-20T08:33:13;4.60;;;4.20;;
4460;SDS011;2243;48.812;9.232;2023-12-20T08:35:44;3.60;;;3.40;;
4460;SDS011;2243;48.812;9.232;2023-12-20T08:38:15;3.57;;;3.30;;
4460;SDS011;2243;48.812;9.232;2023-12-20T08:40:47;3.93;;;3.47;;
4460;SDS011;2243;48.812;9.232;2023-12-20T08:43:18;4.13;;;3.77;;
4460;SDS011;2243;48.812;9.232;2023-12-20T08:45:49;3.77;;;3.57;;
4460;SDS011;2243;48.812;9.232;2023-12-20T08:48:20;3.57;;;3.37;;
4460;SDS011;2243;48.812;9.232;2023-12-20T08:50:51;3.73;;;3.43;;
4460;SDS011;2243;48.812;9.232;2023-12-20T08:53:22;8.40;;;4.10;;
4460;SDS011;2243;48.812;9.232;2023-12-20T08:55:55;3.77;;;3.47;;
4460;SDS011;2243;48.812;9.232;2023-12-20T08:58:28;3.47;;;3.27;;
4460;SDS011;2243;48.812;9.232;2023-12-20T09:01:00;3.53;;;3.30;;
4460;SDS011;2243;48.812;9.232;2023-12-20T09:03:32;3.07;;;2.87;;
4460;SDS011;2243;48.812;9.232;2023-12-20T09:06:03;4.03;;;3.73;;
4460;SDS011;2243;48.812;9.232;2023-12-20T09:08:35;3.60;;;3.40;;
4460;SDS011;2243;48.812;9.232;2023-12-20T09:11:06;4.47;;;3.83;;
4460;SDS011;2243;48.812;9.232;2023-12-20T09:13:41;3.13;;;2.93;;
4460;SDS011;2243;48.812;9.232;2023-12-20T09:16:12;2.73;;;2.53;;
4460;SDS011;2243;48.812;9.232;2023-12-20T09:18:46;3.43;;;3.17;;
4460;SDS011;2243;48.812;9.232;2023-12-20T09:21:17;3.23;;;3.03;;
4460;SDS011;2243;48.812;9.232;2023-12-20T09:23:48;3.80;;;2.87;;
4460;SDS011;2243;48.812;9.232;2023-12-20T09:26:20;3.73;;;3.27;;
4460;SDS011;2243;48.812;9.232;2023-12-20T09:28:51;2.97;;;2.70;;
4460;SDS011;2243;48.812;9.232;2023-12-20T09:31:22;2.60;;;2.40;;
4460;SDS011;2243;48.812;9.232;2023-12-20T09:34:05;2.90;;;2.80;;
4460;SDS011;2243;48.812;9.232;2023-12-20T09:36:36;7.90;;;5.17;;
4460;SDS011;2243;48.812;9.232;2023-12-20T09:39:11;8.00;;;3.33;;
4460;SDS011;2243;48.812;9.232;2023-12-20T09:41:44;2.70;;;2.50;;
4460;SDS011;2243;48.812;9.232;2023-12-20T09:44:31;3.43;;;2.30;;
4460;SDS011;2243;48.812;9.232;2023-12-20T09:47:05;4.50;;;3.70;;
4460;SDS011;2243;48.812;9.232;2023-12-20T09:49:37;5.20;;;3.03;;
4460;SDS011;2243;48.812;9.232;2023-12-20T09:52:08;7.03;;;2.77;;
4460;SDS011;2243;48.812;9.232;2023-12-20T09:54:41;3.77;;;2.27;;
4460;SDS011;2243;48.812;9.232;2023-12-20T09:57:14;1.87;;;1.77;;
4460;SDS011;2243;48.812;9.232;2023-12-20T09:59:45;5.43;;;1.60;;
4460;SDS011;2243;48.812;9.232;2023-12-20T10:02:16;4.47;;;2.00;;
4460;SDS011;2243;48.812;9.232;2023-12-20T10:04:52;3.30;;;1.33;;
4460;SDS011;2243;48.812;9.232;2023-12-20T10:07:25;2.10;;;2.00;;
4460;SDS011;2243;48.812;9.232;2023-12-20T10:09:56;1.70;;;1.60;;
4460;SDS011;2243;48.812;9.232;2023-12-20T10:12:27;2.90;;;1.90;;
4460;SDS011;2243;48.812;9.232;2023-12-20T10:15:03;2.13;;;1.70;;
4460;SDS011;2243;48.812;9.232;2023-12-20T10:17:35;1.83;;;1.73;;
4460;SDS011;2243;48.812;9.232;2023-12-20T10:20:06;5.37;;;2.03;;
4460;SDS011;2243;48.812;9.232;2023-12-20T10:22:40;4.67;;;2.00;;
4460;SDS011;2243;48.812;9.232;2023-12-20T10:25:11;8.33;;;2.27;;
4460;SDS011;2243;48.812;9.232;2023-12-20T10:27:42;3.03;;;1.60;;
4460;SDS011;2243;48.812;9.232;2023-12-20T10:30:13;4.30;;;2.20;;
4460;SDS011;2243;48.812;9.232;2023-12-20T10:32:45;3.20;;;1.77;;
4460;SDS011;2243;48.812;9.232;2023-12-20T10:35:16;2.43;;;2.23;;
4460;SDS011;2243;48.812;9.232;2023-12-20T10:37:47;3.07;;;2.87;;
4460;SDS011;2243;48.812;9.232;2023-12-20T10:40:22;3.40;;;2.20;;
4460;SDS011;2243;48.812;9.232;2023-12-20T10:42:54;7.33;;;2.30;;
4460;SDS011;2243;48.812;9.232;2023-12-20T10:45:26;7.27;;;2.00;;
4460;SDS011;2243;48.812;9.232;2023-12-20T10:47:57;2.20;;;2.10;;
4460;SDS011;2243;48.812;9.232;2023-12-20T10:50:32;5.60;;;2.93;;
4460;SDS011;2243;48.812;9.232;2023-12-20T10:53:11;2.70;;;1.90;;
4460;SDS011;2243;48.812;9.232;2023-12-20T10:55:47;3.73;;;1.73;;
4460;SDS011;2243;48.812;9.232;2023-12-20T10:58:23;3.87;;;1.53;;
4460;SDS011;2243;48.812;9.232;2023-12-20T11:00:59;4.60;;;1.50;;
4460;SDS011;2243;48.812;9.232;2023-12-20T11:03:37;2.80;;;1.40;;
4460;SDS011;2243;48.812;9.232;2023-12-20T11:06:29;5.63;;;1.57;;
4460;SDS011;2243;48.812;9.232;2023-12-20T11:09:20;2.87;;;1.40;;
4460;SDS011;2243;48.812;9.232;2023-12-20T11:15:20;5.07;;;2.37;;
4460;SDS011;2243;48.812;9.232;2023-12-20T11:17:55;1.80;;;1.57;;
4460;SDS011;2243;48.812;9.232;2023-12-20T11:20:37;1.93;;;1.83;;
4460;SDS011;2243;48.812;9.232;2023-12-20T11:23:16;1.93;;;1.73;;
4460;SDS011;2243;48.812;9.232;2023-12-20T11:25:54;1.40;;;1.30;;
4460;SDS011;2243;48.812;9.232;2023-12-20T11:28:29;1.67;;;1.57;;
4460;SDS011;2243;48.812;9.232;2023-12-20T11:31:01;6.23;;;1.73;;
4460;SDS011;2243;48.812;9.232;2023-12-20T11:33:37;4.43;;;1.67;;
4460;SDS011;2243;48.812;9.232;2023-12-20T11:36:13;4.10;;;1.80;;
4460;SDS011;2243;48.812;9.232;2023-12-20T11:38:55;2.57;;;1.23;;
4460;SDS011;2243;48.812;9.232;2023-12-20T11:41:28;1.50;;;1.50;;
4460;SDS011;2243;48.812;9.232;2023-12-20T11:43:59;2.43;;;1.70;;
4460;SDS011;2243;48.812;9.232;2023-12-20T11:46:31;5.50;;;1.80;;
4460;SDS011;2243;48.812;9.232;2023-12-20T11:49:03;3.20;;;1.77;;
4460;SDS011;2243;48.812;9.232;2023-12-20T11:51:35;1.70;;;1.50;;
4460;SDS011;2243;48.812;9.232;2023-12-20T11:54:11;3.60;;;1.77;;
4460;SDS011;2243;48.812;9.232;2023-12-20T11:56:49;5.17;;;1.63;;
4460;SDS011;2243;48.812;9.232;2023-12-20T11:59:23;2.37;;;1.40;;
4460;SDS011;2243;48.812;9.232;2023-12-20T12:01:56;6.33;;;1.87;;
4460;SDS011;2243;48.812;9.232;2023-12-20T12:04:32;3.43;;;1.73;;
4460;SDS011;2243;48.812;9.232;2023-12-20T12:07:06;3.57;;;1.80;;
4460;SDS011;2243;48.812;9.232;2023-12-20T12:09:37;2.80;;;1.30;;
4460;SDS011;2243;48.812;9.232;2023-12-20T12:12:08;1.73;;;1.60;;
4460;SDS011;2243;48.812;9.232;2023-12-20T12:14:44;3.60;;;1.70;;
4460;SDS011;2243;48.812;9.232;2023-12-20T12:17:16;1.70;;;1.50;;
4460;SDS011;2243;48.812;9.232;2023-12-20T12:19:47;7.87;;;2.13;;
4460;SDS011;2243;48.812;9.232;2023-12-20T12:22:20;1.87;;;1.40;;
4460;SDS011;2243;48.812;9.232;2023-12-20T12:25:09;3.63;;;2.40;;
4460;SDS011;2243;48.812;9.232;2023-12-20T12:27:44;2.37;;;1.83;;
4460;SDS011;2243;48.812;9.232;2023-12-20T12:30:16;2.27;;;1.27;;
4460;SDS011;2243;48.812;9.232;2023-12-20T12:32:53;5.53;;;1.47;;
4460;SDS011;2243;48.812;9.232;2023-12-20T12:35:25;1.83;;;1.37;;
4460;SDS011;2243;48.812;9.232;2023-12-20T12:37:58;2.30;;;1.77;;
4460;SDS011;2243;48.812;9.232;2023-12-20T12:40:34;4.13;;;1.77;;
4460;SDS011;2243;48.812;9.232;2023-12-20T12:43:07;1.70;;;1.60;;
4460;SDS011;2243;48.812;9.232;2023-12-20T12:45:38;3.17;;;1.93;;
4460;SDS011;2243;48.812;9.232;2023-12-20T12:48:09;1.70;;;1.50;;
4460;SDS011;2243;48.812;9.232;2023-12-20T12:50:40;1.93;;;1.50;;
4460;SDS011;2243;48.812;9.232;2023-12-20T12:53:11;7.00;;;1.70;;
4460;SDS011;2243;48.812;9.232;2023-12-20T12:55:45;5.70;;;1.70;;
4460;SDS011;2243;48.812;9.232;2023-12-20T12:58:16;4.13;;;1.60;;
4460;SDS011;2243;48.812;9.232;2023-12-20T13:00:47;1.57;;;1.57;;
4460;SDS011;2243;48.812;9.232;2023-12-20T13:03:21;4.13;;;2.10;;
4460;SDS011;2243;48.812;9.232;2023-12-20T13:05:54;2.40;;;1.83;;
4460;SDS011;2243;48.812;9.232;2023-12-20T13:08:25;1.90;;;1.80;;
4460;SDS011;2243;48.812;9.232;2023-12-20T13:11:00;1.70;;;1.53;;
4460;SDS011;2243;48.812;9.232;2023-12-20T13:13:34;1.87;;;1.30;;
4460;SDS011;2243;48.812;9.232;2023-12-20T13:16:08;4.43;;;2.63;;
4460;SDS011;2243;48.812;9.232;2023-12-20T13:18:41;1.90;;;1.80;;
4460;SDS011;2243;48.812;9.232;2023-12-20T13:21:13;2.10;;;2.00;;
4460;SDS011;2243;48.812;9.232;2023-12-20T13:23:44;1.50;;;1.40;;
4460;SDS011;2243;48.812;9.232;2023-12-20T13:26:19;4.50;;;1.60;;
4460;SDS011;2243;48.812;9.232;2023-12-20T13:28:50;1.63;;;1.23;;
4460;SDS011;2243;48.812;9.232;2023-12-20T13:31:21;2.50;;;1.70;;
4460;SDS011;2243;48.812;9.232;2023-12-20T13:33:55;2.70;;;1.60;;
4460;SDS011;2243;48.812;9.232;2023-12-20T13:36:26;2.70;;;1.60;;
4460;SDS011;2243;48.812;9.232;2023-12-20T13:39:00;1.30;;;1.20;;
4460;SDS011;2243;48.812;9.232;2023-12-20T13:41:33;1.93;;;1.83;;
4460;SDS011;2243;48.812;9.232;2023-12-20T13:44:07;2.33;;;2.07;;
4460;SDS011;2243;48.812;9.232;2023-12-20T13:46:39;1.50;;;1.40;;
4460;SDS011;2243;48.812;9.232;2023-12-20T13:49:11;2.40;;;1.50;;
4460;SDS011;2243;48.812;9.232;2023-12-20T13:51:42;1.80;;;1.27;;
4460;SDS011;2243;48.812;9.232;2023-12-20T13:54:18;5.43;;;1.27;;
4460;SDS011;2243;48.812;9.232;2023-12-20T13:56:53;1.23;;;1.10;;
4460;SDS011;2243;48.812;9.232;2023-12-20T13:59:41;1.67;;;1.50;;
4460;SDS011;2243;48.812;9.232;2023-12-20T14:02:16;4.97;;;1.90;;
4460;SDS011;2243;48.812;9.232;2023-12-20T14:04:49;4.40;;;1.87;;
4460;SDS011;2243;48.812;9.232;2023-12-20T14:07:20;2.43;;;1.50;;
4460;SDS011;2243;48.812;9.232;2023-12-20T14:09:52;3.17;;;2.20;;
4460;SDS011;2243;48.812;9.232;2023-12-20T14:12:23;1.50;;;1.33;;
4460;SDS011;2243;48.812;9.232;2023-12-20T14:14:54;2.27;;;1.40;;
4460;SDS011;2243;48.812;9.232;2023-12-20T14:17:28;9.93;;;1.60;;
4460;SDS011;2243;48.812;9.232;2023-12-20T14:20:02;1.40;;;1.30;;
4460;SDS011;2243;48.812;9.232;2023-12-20T14:22:35;4.63;;;2.67;;
4460;SDS011;2243;48.812;9.232;2023-12-20T14:25:12;4.87;;;1.27;;
4460;SDS011;2243;48.812;9.232;2023-12-20T14:27:49;1.10;;;1.10;;
4460;SDS011;2243;48.812;9.232;2023-12-20T14:30:21;1.70;;;1.60;;
4460;SDS011;2243;48.812;9.232;2023-12-20T14:32:52;2.50;;;1.40;;
4460;SDS011;2243;48.812;9.232;2023-12-20T14:35:22;2.17;;;1.60;;
4460;SDS011;2243;48.812;9.232;2023-12-20T14:37:53;1.73;;;1.63;;
4460;SDS011;2243;48.812;9.232;2023-12-20T14:40:24;1.60;;;1.50;;
4460;SDS011;2243;48.812;9.232;2023-12-20T14:42:55;2.80;;;1.43;;
4460;SDS011;2243;48.812;9.232;2023-12-20T14:45:27;4.83;;;1.83;;
4460;SDS011;2243;48.812;9.232;2023-12-20T14:48:08;4.77;;;1.53;;
4460;SDS011;2243;48.812;9.232;2023-12-20T14:50:42;2.60;;;1.27;;
4460;SDS011;2243;48.812;9.232;2023-12-20T14:53:13;2.57;;;1.57;;
4460;SDS011;2243;48.812;9.232;2023-12-20T14:55:52;1.80;;;1.70;;
4460;SDS011;2243;48.812;9.232;2023-12-20T14:58:23;3.53;;;1.30;;
4460;SDS011;2243;48.812;9.232;2023-12-20T15:00:54;2.73;;;1.17;;
4460;SDS011;2243;48.812;9.232;2023-12-20T15:03:26;1.50;;;1.30;;
4460;SDS011;2243;48.812;9.232;2023-12-20T15:05:57;1.67;;;1.57;;
4460;SDS011;2243;48.812;9.232;2023-12-20T15:08:29;3.43;;;2.10;;
4460;SDS011;2243;48.812;9.232;2023-12-20T15:11:01;1.73;;;1.53;;
4460;SDS011;2243;48.812;9.232;2023-12-20T15:13:33;4.30;;;1.67;;
4460;SDS011;2243;48.812;9.232;2023-12-20T15:16:04;2.27;;;1.70;;
4460;SDS011;2243;48.812;9.232;2023-12-20T15:18:36;4.13;;;2.33;;
4460;SDS011;2243;48.812;9.232;2023-12-20T15:21:07;2.00;;;1.90;;
4460;SDS011;2243;48.812;9.232;2023-12-20T15:23:38;2.03;;;1.70;;
4460;SDS011;2243;48.812;9.232;2023-12-20T15:26:16;4.30;;;1.50;;
4460;SDS011;2243;48.812;9.232;2023-12-20T15:28:47;4.13;;;3.07;;
4460;SDS011;2243;48.812;9.232;2023-12-20T15:31:18;1.60;;;1.50;;
4460;SDS011;2243;48.812;9.232;2023-12-20T15:33:49;9.30;;;1.70;;
4460;SDS011;2243;48.812;9.232;2023-12-20T15:36:26;1.57;;;1.33;;
4460;SDS011;2243;48.812;9.232;2023-12-20T15:43:28;5.40;;;1.43;;
4460;SDS011;2243;48.812;9.232;2023-12-20T15:46:00;3.60;;;1.47;;
4460;SDS011;2243;48.812;9.232;2023-12-20T15:48:35;1.67;;;1.57;;
4460;SDS011;2243;48.812;9.232;2023-12-20T15:51:09;1.50;;;1.40;;
4460;SDS011;2243;48.812;9.232;2023-12-20T15:53:41;1.57;;;1.20;;